Observation data for Northwest San Angelo on 05/15/2018      Previous  Date  Next       Current Mesonet Observations  Soil Data  Daily Summary Page  Observations in Plain Language
KASU 150500Z 13007KT 19/15 A2996 RMK A01 T01910148  RH  078%=      5-min Rain = 0
KASU 150505Z 14007KT 19/15 A2996 RMK A01 T01920147  RH  077%=      5-min Rain = 0
KASU 150510Z 14007KT 19/15 A2996 RMK A01 T01910148  RH  078%=      5-min Rain = 0
KASU 150515Z 15007KT 19/15 A2996 RMK A01 T01900148  RH  078%=      5-min Rain = 0
KASU 150520Z 15006KT 19/15 A2996 RMK A01 T01900148  RH  078%=      5-min Rain = 0
KASU 150525Z 15006KT 19/15 A2996 RMK A01 T01900148  RH  078%=      5-min Rain = 0
KASU 150530Z 16006KT 19/15 A2996 RMK A01 T01890148  RH  079%=      5-min Rain = 0
KASU 150535Z 17005KT 19/15 A2996 RMK A01 T01880148  RH  080%=      5-min Rain = 0
KASU 150540Z 18005KT 19/15 A2996 RMK A01 T01870150  RH  081%=      5-min Rain = 0
KASU 150545Z 18005KT 19/15 A2996 RMK A01 T01870150  RH  081%=      5-min Rain = 0
KASU 150550Z 19004KT 19/15 A2996 RMK A01 T01860150  RH  081%=      5-min Rain = 0
KASU 150555Z 21006KT 19/15 A2996 RMK A01 T01870148  RH  080%=      5-min Rain = 0
KASU 150600Z 22005KT 19/15 A2995 RMK A01 T01850148  RH  081%=      5-min Rain = 0
KASU 150605Z 21005KT 19/15 A2996 RMK A01 T01850148  RH  081%=      5-min Rain = 0
KASU 150610Z 20003KT 19/15 A2996 RMK A01 T01850147  RH  081%=      5-min Rain = 0
KASU 150615Z 19002KT 19/15 A2996 RMK A01 T01850146  RH  080%=      5-min Rain = 0
KASU 150620Z 19001KT 19/15 A2996 RMK A01 T01850146  RH  080%=      5-min Rain = 0
KASU 150625Z 22000KT 18/15 A2996 RMK A01 T01840146  RH  080%=      5-min Rain = 0
KASU 150630Z 23000KT 18/15 A2995 RMK A01 T01830145  RH  080%=      5-min Rain = 0
KASU 150635Z 05000KT 18/14 A2995 RMK A01 T01810144  RH  081%=      5-min Rain = 0
KASU 150640Z 06001KT 18/14 A2995 RMK A01 T01800144  RH  081%=      5-min Rain = 0
KASU 150645Z 08001KT 18/15 A2995 RMK A01 T01790146  RH  083%=      5-min Rain = 0
KASU 150650Z 15001KT 18/15 A2995 RMK A01 T01770146  RH  084%=      5-min Rain = 0
KASU 150655Z 15001KT 18/15 A2995 RMK A01 T01750146  RH  085%=      5-min Rain = 0
KASU 150700Z 15001KT 18/15 A2994 RMK A01 T01750145  RH  084%=      5-min Rain = 0
KASU 150705Z 14000KT 18/14 A2994 RMK A01 T01790144  RH  082%=      5-min Rain = 0
KASU 150710Z 00000KT 18/15 A2994 RMK A01 T01780145  RH  083%=      5-min Rain = 0
KASU 150715Z 20001KT 18/15 A2994 RMK A01 T01750145  RH  085%=      5-min Rain = 0
KASU 150720Z 19003KT 18/14 A2994 RMK A01 T01760144  RH  083%=      5-min Rain = 0
KASU 150725Z 20004KT 18/14 A2993 RMK A01 T01840142  RH  078%=      5-min Rain = 0
KASU 150730Z 23004KT 18/14 A2993 RMK A01 T01840141  RH  077%=      5-min Rain = 0
KASU 150735Z 24004KT 18/14 A2993 RMK A01 T01830140  RH  077%=      5-min Rain = 0
KASU 150740Z 22006KT 19/14 A2993 RMK A01 T01850139  RH  076%=      5-min Rain = 0
KASU 150745Z 22005KT 19/14 A2992 RMK A01 T01850140  RH  077%=      5-min Rain = 0
KASU 150750Z 22006KT 19/14 A2992 RMK A01 T01860140  RH  076%=      5-min Rain = 0
KASU 150755Z 21006KT 19/14 A2991 RMK A01 T01860140  RH  076%=      5-min Rain = 0
KASU 150800Z 22005KT 19/14 A2991 RMK A01 T01850141  RH  077%=      5-min Rain = 0
KASU 150805Z 22004KT 19/14 A2991 RMK A01 T01880141  RH  076%=      5-min Rain = 0
KASU 150810Z 22003KT 19/14 A299 RMK A01 T01880142  RH  076%=      5-min Rain = 0
KASU 150815Z 24002KT 19/14 A2991 RMK A01 T01890142  RH  076%=      5-min Rain = 0
KASU 150820Z 32003KT 19/14 A2991 RMK A01 T01850142  RH  078%=      5-min Rain = 0
KASU 150825Z 32003KT 18/14 A2991 RMK A01 T01790142  RH  081%=      5-min Rain = 0
KASU 150830Z 32002KT 17/14 A2991 RMK A01 T01740141  RH  083%=      5-min Rain = 0
KASU 150835Z 31002KT 17/14 A299 RMK A01 T01730142  RH  084%=      5-min Rain = 0
KASU 150840Z 29002KT 17/14 A299 RMK A01 T01740143  RH  084%=      5-min Rain = 0
KASU 150845Z 26001KT 18/14 A299 RMK A01 T01750143  RH  083%=      5-min Rain = 0
KASU 150850Z 26002KT 18/14 A299 RMK A01 T01770144  RH  082%=      5-min Rain = 0
KASU 150855Z 26002KT 18/14 A299 RMK A01 T01790144  RH  082%=      5-min Rain = 0
KASU 150900Z 25003KT 18/14 A299 RMK A01 T01790144  RH  082%=      5-min Rain = 0
KASU 150905Z 29002KT 18/14 A299 RMK A01 T01800144  RH  081%=      5-min Rain = 0
KASU 150910Z 28002KT 18/14 A299 RMK A01 T01780144  RH  082%=      5-min Rain = 0
KASU 150915Z 27002KT 18/14 A2991 RMK A01 T01780144  RH  082%=      5-min Rain = 0
KASU 150920Z 26003KT 18/15 A2991 RMK A01 T01800145  RH  082%=      5-min Rain = 0
KASU 150925Z 24003KT 18/15 A2991 RMK A01 T01840145  RH  080%=      5-min Rain = 0
KASU 150930Z 25003KT 19/15 A2991 RMK A01 T01860145  RH  079%=      5-min Rain = 0
KASU 150935Z 24002KT 19/14 A2991 RMK A01 T01860144  RH  079%=      5-min Rain = 0
KASU 150940Z 24002KT 19/15 A299 RMK A01 T01870145  RH  078%=      5-min Rain = 0
KASU 150945Z 23003KT 19/15 A299 RMK A01 T01870145  RH  078%=      5-min Rain = 0
KASU 150950Z 23003KT 19/15 A299 RMK A01 T01880145  RH  078%=      5-min Rain = 0
KASU 150955Z 24002KT 19/15 A299 RMK A01 T01890146  RH  077%=      5-min Rain = 0
KASU 151000Z 23001KT 19/15 A299 RMK A01 T01880145  RH  078%=      5-min Rain = 0
KASU 151005Z 25000KT 19/15 A2991 RMK A01 T01880146  RH  078%=      5-min Rain = 0
KASU 151010Z 32000KT 19/15 A2991 RMK A01 T01880146  RH  078%=      5-min Rain = 0
KASU 151015Z 32000KT 18/15 A2991 RMK A01 T01840146  RH  080%=      5-min Rain = 0
KASU 151020Z 21000KT 18/15 A2991 RMK A01 T01800145  RH  082%=      5-min Rain = 0
KASU 151025Z 22001KT 18/15 A2991 RMK A01 T01790146  RH  083%=      5-min Rain = 0
KASU 151030Z 20002KT 18/15 A2991 RMK A01 T01780148  RH  084%=      5-min Rain = 0
KASU 151035Z 18002KT 18/15 A2991 RMK A01 T01790149  RH  084%=      5-min Rain = 0
KASU 151040Z 17001KT 18/15 A2991 RMK A01 T01790149  RH  084%=      5-min Rain = 0
KASU 151045Z 11002KT 18/15 A2991 RMK A01 T01770147  RH  085%=      5-min Rain = 0
KASU 151050Z 10001KT 18/15 A2991 RMK A01 T01760149  RH  086%=      5-min Rain = 0
KASU 151055Z 02000KT 18/15 A2991 RMK A01 T01780149  RH  085%=      5-min Rain = 0
KASU 151100Z 27001KT 17/15 A2991 RMK A01 T01730147  RH  086%=      5-min Rain = 0
KASU 151105Z 24000KT 18/15 A2991 RMK A01 T01750149  RH  087%=      5-min Rain = 0
KASU 151110Z 24001KT 18/15 A2991 RMK A01 T01770150  RH  086%=      5-min Rain = 0
KASU 151115Z 25001KT 18/15 A2991 RMK A01 T01760149  RH  086%=      5-min Rain = 0
KASU 151120Z 25000KT 18/15 A2991 RMK A01 T01770151  RH  087%=      5-min Rain = 0
KASU 151125Z 16000KT 18/15 A2991 RMK A01 T01780151  RH  086%=      5-min Rain = 0
KASU 151130Z 23001KT 18/15 A2992 RMK A01 T01810154  RH  086%=      5-min Rain = 0
KASU 151135Z 24001KT 18/15 A2992 RMK A01 T01820153  RH  085%=      5-min Rain = 0
KASU 151140Z 24001KT 18/15 A2992 RMK A01 T01830154  RH  085%=      5-min Rain = 0
KASU 151145Z 25002KT 18/15 A2993 RMK A01 T01830154  RH  085%=      5-min Rain = 0
KASU 151150Z 27003KT 18/15 A2993 RMK A01 T01790151  RH  085%=      5-min Rain = 0
KASU 151155Z 26003KT 18/16 A2993 RMK A01 T01810156  RH  087%=      5-min Rain = 0
KASU 151200Z 28003KT 19/16 A2993 RMK A01 T01850158  RH  086%=      5-min Rain = 0
KASU 151205Z 26002KT 19/16 A2993 RMK A01 T01870159  RH  085%=      5-min Rain = 0
KASU 151210Z 25001KT 19/16 A2994 RMK A01 T01910161  RH  085%=      5-min Rain = 0
KASU 151215Z 21002KT 19/16 A2994 RMK A01 T01940163  RH  084%=      5-min Rain = 0
KASU 151220Z 23002KT 20/16 A2994 RMK A01 T01980164  RH  083%=      5-min Rain = 0
KASU 151225Z 23001KT 20/17 A2994 RMK A01 T02000165  RH  082%=      5-min Rain = 0
KASU 151230Z 20001KT 20/17 A2995 RMK A01 T02020166  RH  082%=      5-min Rain = 0
KASU 151235Z 19002KT 20/17 A2995 RMK A01 T02030168  RH  082%=      5-min Rain = 0
KASU 151240Z 16001KT 21/17 A2995 RMK A01 T02060169  RH  081%=      5-min Rain = 0
KASU 151245Z 15001KT 21/17 A2995 RMK A01 T02090170  RH  080%=      5-min Rain = 0
KASU 151250Z 14000KT 21/17 A2995 RMK A01 T02120169  RH  079%=      5-min Rain = 0
KASU 151255Z 15002KT 21/17 A2996 RMK A01 T02100170  RH  080%=      5-min Rain = 0
KASU 151300Z 18002KT 21/17 A2996 RMK A01 T02100172  RH  081%=      5-min Rain = 0
KASU 151305Z 20002KT 21/17 A2996 RMK A01 T02120173  RH  080%=      5-min Rain = 0
KASU 151310Z 21002KT 21/17 A2996 RMK A01 T02140174  RH  080%=      5-min Rain = 0
KASU 151315Z 23005KT 22/18 A2996 RMK A01 T02160177  RH  080%=      5-min Rain = 0
KASU 151320Z 22005KT 22/18 A2996 RMK A01 T02170179  RH  081%=      5-min Rain = 0
KASU 151325Z 21005G10KT 22/18 A2996 RMK A01 T02170179  RH  081%=      5-min Rain = 0
KASU 151330Z 21007KT 22/18 A2996 RMK A01 T02190181  RH  081%=      5-min Rain = 0
KASU 151335Z 19007KT 22/18 A2996 RMK A01 T02200182  RH  081%=      5-min Rain = 0
KASU 151340Z 18007KT 22/18 A2996 RMK A01 T02210183  RH  081%=      5-min Rain = 0
KASU 151345Z 18006KT 22/18 A2997 RMK A01 T02210184  RH  081%=      5-min Rain = 0
KASU 151350Z 18007KT 22/19 A2997 RMK A01 T02220185  RH  081%=      5-min Rain = 0
KASU 151355Z 18007KT 22/19 A2997 RMK A01 T02240186  RH  081%=      5-min Rain = 0
KASU 151400Z 18007KT 23/19 A2997 RMK A01 T02260186  RH  080%=      5-min Rain = 0
KASU 151405Z 18007KT 23/19 A2996 RMK A01 T02300189  RH  080%=      5-min Rain = 0
KASU 151410Z 18007KT 23/19 A2997 RMK A01 T02330189  RH  078%=      5-min Rain = 0
KASU 151415Z 18006G11KT 23/19 A2997 RMK A01 T02340188  RH  077%=      5-min Rain = 0
KASU 151420Z 19008KT 23/19 A2997 RMK A01 T02340188  RH  077%=      5-min Rain = 0
KASU 151425Z 19008KT 24/19 A2997 RMK A01 T02360188  RH  077%=      5-min Rain = 0
KASU 151430Z 18008KT 24/19 A2997 RMK A01 T02400190  RH  076%=      5-min Rain = 0
KASU 151435Z 18007KT 24/19 A2997 RMK A01 T02370187  RH  076%=      5-min Rain = 0
KASU 151440Z 20009KT 24/19 A2996 RMK A01 T02360186  RH  075%=      5-min Rain = 0
KASU 151445Z 19008KT 24/19 A2996 RMK A01 T02390186  RH  074%=      5-min Rain = 0
KASU 151450Z 20006KT 24/19 A2997 RMK A01 T02430186  RH  072%=      5-min Rain = 0
KASU 151455Z 19008KT 25/19 A2996 RMK A01 T02490191  RH  072%=      5-min Rain = 0
KASU 151500Z 20010KT 25/19 A2996 RMK A01 T02480186  RH  070%=      5-min Rain = 0
KASU 151505Z 20009KT 25/19 A2996 RMK A01 T02500187  RH  070%=      5-min Rain = 0
KASU 151510Z 20009G15KT 25/19 A2996 RMK A01 T02530188  RH  069%=      5-min Rain = 0
KASU 151515Z 19011KT 25/19 A2996 RMK A01 T02540186  RH  068%=      5-min Rain = 0
KASU 151520Z 19011KT 26/19 A2997 RMK A01 T02570187  RH  067%=      5-min Rain = 0
KASU 151525Z 19010KT 26/19 A2997 RMK A01 T02570186  RH  067%=      5-min Rain = 0
KASU 151530Z 19010KT 26/19 A2997 RMK A01 T02620188  RH  065%=      5-min Rain = 0
KASU 151535Z 21009KT 26/19 A2996 RMK A01 T02610186  RH  065%=      5-min Rain = 0
KASU 151540Z 19009KT 26/19 A2996 RMK A01 T02640189  RH  065%=      5-min Rain = 0
KASU 151545Z 18009KT 27/19 A2996 RMK A01 T02670190  RH  064%=      5-min Rain = 0
KASU 151550Z 18008KT 27/19 A2996 RMK A01 T02670188  RH  064%=      5-min Rain = 0
KASU 151555Z 18010KT 27/19 A2996 RMK A01 T02670188  RH  063%=      5-min Rain = 0
KASU 151600Z 19008KT 27/19 A2997 RMK A01 T02710190  RH  063%=      5-min Rain = 0
KASU 151605Z 20010G15KT 27/19 A2997 RMK A01 T02700190  RH  063%=      5-min Rain = 0
KASU 151610Z 21008G14KT 27/19 A2997 RMK A01 T02670186  RH  063%=      5-min Rain = 0
KASU 151615Z 19006KT 27/19 A2997 RMK A01 T02730189  RH  061%=      5-min Rain = 0
KASU 151620Z 21008KT 27/19 A2997 RMK A01 T02720188  RH  062%=      5-min Rain = 0
KASU 151625Z 18006KT 28/19 A2997 RMK A01 T02770188  RH  060%=      5-min Rain = 0
KASU 151630Z 19007KT 28/19 A2997 RMK A01 T02800188  RH  059%=      5-min Rain = 0
KASU 151635Z 21005KT 28/19 A2997 RMK A01 T02780185  RH  059%=      5-min Rain = 0
KASU 151640Z 14006KT 29/19 A2997 RMK A01 T02860187  RH  057%=      5-min Rain = 0
KASU 151645Z 19004KT 28/19 A2997 RMK A01 T02830185  RH  057%=      5-min Rain = 0
KASU 151650Z 19005KT 28/19 A2997 RMK A01 T02830185  RH  057%=      5-min Rain = 0
KASU 151655Z 18007KT 29/19 A2997 RMK A01 T02870188  RH  056%=      5-min Rain = 0
KASU 151700Z 15004KT 29/18 A2997 RMK A01 T02900182  RH  053%=      5-min Rain = 0
KASU 151705Z 14002KT 29/18 A2998 RMK A01 T02910179  RH  052%=      5-min Rain = 0
KASU 151710Z 08002KT 29/18 A2998 RMK A01 T02900176  RH  052%=      5-min Rain = 0
KASU 151715Z 12005KT 30/19 A2998 RMK A01 T02970186  RH  053%=      5-min Rain = 0
KASU 151720Z 12005KT 30/18 A2998 RMK A01 T02950183  RH  052%=      5-min Rain = 0
KASU 151725Z 11004KT 30/18 A2998 RMK A01 T02950184  RH  053%=      5-min Rain = 0
KASU 151730Z 12006KT 30/18 A2997 RMK A01 T02980184  RH  052%=      5-min Rain = 0
KASU 151735Z 14005KT 30/18 A2997 RMK A01 T02970180  RH  051%=      5-min Rain = 0
KASU 151740Z 18006KT 30/18 A2997 RMK A01 T03000182  RH  051%=      5-min Rain = 0
KASU 151745Z 18003KT 30/18 A2997 RMK A01 T02980180  RH  050%=      5-min Rain = 0
KASU 151750Z 19003KT 30/18 A2997 RMK A01 T02970177  RH  050%=      5-min Rain = 0
KASU 151755Z 15009KT 30/18 A2997 RMK A01 T03030181  RH  049%=      5-min Rain = 0
KASU 151800Z 15005KT 30/18 A2997 RMK A01 T03020177  RH  048%=      5-min Rain = 0
KASU 151805Z 13006KT 30/18 A2997 RMK A01 T03040179  RH  048%=      5-min Rain = 0
KASU 151810Z 15005G11KT 31/18 A2996 RMK A01 T03050177  RH  048%=      5-min Rain = 0
KASU 151815Z 16006KT 31/18 A2996 RMK A01 T03080176  RH  046%=      5-min Rain = 0
KASU 151820Z 16004KT 31/17 A2996 RMK A01 T03080169  RH  044%=      5-min Rain = 0
KASU 151825Z 15004G10KT 31/17 A2996 RMK A01 T03090173  RH  045%=      5-min Rain = 0
KASU 151830Z 14005KT 31/18 A2996 RMK A01 T03110178  RH  046%=      5-min Rain = 0
KASU 151835Z 13004KT 31/18 A2996 RMK A01 T03110180  RH  047%=      5-min Rain = 0
KASU 151840Z 15006KT 31/19 A2996 RMK A01 T03140188  RH  048%=      5-min Rain = 0
KASU 151845Z 14002G8KT 31/18 A2996 RMK A01 T03120180  RH  047%=      5-min Rain = 0
KASU 151850Z 14005KT 32/18 A2995 RMK A01 T03150179  RH  046%=      5-min Rain = 0
KASU 151855Z 14005KT 32/18 A2995 RMK A01 T03160178  RH  045%=      5-min Rain = 0
KASU 151900Z 15005KT 32/18 A2995 RMK A01 T03160183  RH  046%=      5-min Rain = 0
KASU 151905Z 13004KT 32/18 A2995 RMK A01 T03160179  RH  045%=      5-min Rain = 0
KASU 151910Z 13006KT 32/19 A2994 RMK A01 T03200187  RH  047%=      5-min Rain = 0
KASU 151915Z 14007G13KT 32/18 A2994 RMK A01 T03220181  RH  044%=      5-min Rain = 0
KASU 151920Z 15006G11KT 32/18 A2994 RMK A01 T03190176  RH  044%=      5-min Rain = 0
KASU 151925Z 14006G12KT 32/18 A2994 RMK A01 T03210178  RH  044%=      5-min Rain = 0
KASU 151930Z 12006G12KT 32/17 A2994 RMK A01 T03190170  RH  042%=      5-min Rain = 0
KASU 151935Z 11006G12KT 32/17 A2994 RMK A01 T03200171  RH  042%=      5-min Rain = 0
KASU 151940Z 09007KT 32/18 A2994 RMK A01 T03210179  RH  044%=      5-min Rain = 0
KASU 151945Z 07004KT 32/17 A2993 RMK A01 T03210173  RH  042%=      5-min Rain = 0
KASU 151950Z 12008KT 32/18 A2993 RMK A01 T03240177  RH  042%=      5-min Rain = 0
KASU 151955Z 11006KT 33/17 A2993 RMK A01 T03260173  RH  041%=      5-min Rain = 0
KASU 152000Z 15005KT 33/17 A2993 RMK A01 T03250172  RH  041%=      5-min Rain = 0
KASU 152005Z 12004KT 33/17 A2992 RMK A01 T03250174  RH  042%=      5-min Rain = 0
KASU 152010Z 10004KT 33/18 A2992 RMK A01 T03280178  RH  042%=      5-min Rain = 0
KASU 152015Z 10007KT 33/18 A2991 RMK A01 T03310180  RH  042%=      5-min Rain = 0
KASU 152020Z 12006KT 33/18 A2991 RMK A01 T03280178  RH  042%=      5-min Rain = 0
KASU 152025Z 11008KT 33/18 A2991 RMK A01 T03290180  RH  042%=      5-min Rain = 0
KASU 152030Z 12007KT 33/18 A2991 RMK A01 T03290176  RH  041%=      5-min Rain = 0
KASU 152035Z 14007KT 33/17 A299 RMK A01 T03310173  RH  040%=      5-min Rain = 0
KASU 152040Z 13004KT 33/17 A299 RMK A01 T03310169  RH  039%=      5-min Rain = 0
KASU 152045Z 11007KT 33/18 A2989 RMK A01 T03310176  RH  041%=      5-min Rain = 0
KASU 152050Z 11008G13KT 34/18 A2989 RMK A01 T03350179  RH  041%=      5-min Rain = 0
KASU 152055Z 11006KT 33/17 A2989 RMK A01 T03280170  RH  040%=      5-min Rain = 0
KASU 152100Z 10004G9KT 33/17 A2989 RMK A01 T03300173  RH  040%=      5-min Rain = 0
KASU 152105Z 10006G11KT 33/18 A2989 RMK A01 T03340175  RH  040%=      5-min Rain = 0
KASU 152110Z 10008KT 33/18 A2988 RMK A01 T03340177  RH  040%=      5-min Rain = 0
KASU 152115Z 10009G14KT 33/17 A2987 RMK A01 T03330174  RH  040%=      5-min Rain = 0
KASU 152120Z 13009G14KT 34/17 A2987 RMK A01 T03350173  RH  039%=      5-min Rain = 0
KASU 152125Z 11008G14KT 33/17 A2986 RMK A01 T03340170  RH  039%=      5-min Rain = 0
KASU 152130Z 09008G13KT 34/17 A2986 RMK A01 T03360172  RH  039%=      5-min Rain = 0
KASU 152135Z 10008G14KT 34/17 A2986 RMK A01 T03350170  RH  038%=      5-min Rain = 0
KASU 152140Z 13009G15KT 34/17 A2986 RMK A01 T03380169  RH  037%=      5-min Rain = 0
KASU 152145Z 11011KT 34/17 A2985 RMK A01 T03400172  RH  038%=      5-min Rain = 0
KASU 152150Z 11011G16KT 34/17 A2984 RMK A01 T03390172  RH  038%=      5-min Rain = 0
KASU 152155Z 11010KT 33/16 A2985 RMK A01 T03310164  RH  038%=      5-min Rain = 0
KASU 152200Z 08011KT 32/18 A2985 RMK A01 T03230175  RH  042%=      5-min Rain = 0
KASU 152205Z 10011G16KT 32/17 A2984 RMK A01 T03180170  RH  042%=      5-min Rain = 0
KASU 152210Z 09012G17KT 32/17 A2984 RMK A01 T03150171  RH  043%=      5-min Rain = 0
KASU 152215Z 09013KT 31/18 A2983 RMK A01 T03120175  RH  045%=      5-min Rain = 0
KASU 152220Z 08013KT 31/18 A2984 RMK A01 T03100178  RH  046%=      5-min Rain = 0
KASU 152225Z 07011KT 31/18 A2986 RMK A01 T03090179  RH  047%=      5-min Rain = 0
KASU 152230Z 06010KT 31/18 A2986 RMK A01 T03070181  RH  048%=      5-min Rain = 0
KASU 152235Z 04009KT 31/18 A2987 RMK A01 T03060180  RH  048%=      5-min Rain = 0
KASU 152240Z 04008KT 31/18 A2989 RMK A01 T03060178  RH  048%=      5-min Rain = 0
KASU 152245Z 04008G13KT 30/18 A2988 RMK A01 T03040181  RH  049%=      5-min Rain = 0
KASU 152250Z 04009G14KT 30/18 A2987 RMK A01 T03020182  RH  050%=      5-min Rain = 0
KASU 152255Z 04008KT 30/19 A2987 RMK A01 T02990185  RH  052%=      5-min Rain = 0
KASU 152300Z 04011G16KT 30/18 A2986 RMK A01 T02970184  RH  052%=      5-min Rain = 0
KASU 152305Z 05013G18KT 30/19 A2984 RMK A01 T02950185  RH  053%=      5-min Rain = 0
KASU 152310Z 04012G17KT 30/19 A2985 RMK A01 T02950185  RH  053%=      5-min Rain = 0
KASU 152315Z 04011G17KT 30/19 A2986 RMK A01 T02950185  RH  053%=      5-min Rain = 0
KASU 152320Z 04012G24KT 30/16 A2986 RMK A01 T02960159  RH  045%=      5-min Rain = 0
KASU 152325Z 03013G22KT 28/12 A2986 RMK A01 T02830123  RH  038%=      5-min Rain = 0
KASU 152330Z 04009KT 28/12 A2986 RMK A01 T02800120  RH  038%=      5-min Rain = 0
KASU 152335Z 04009G16KT 27/14 A2987 RMK A01 T02700137  RH  045%=      5-min Rain = 0.01
KASU 152340Z 03007KT 29/11 A2988 RMK A01 T02900114  RH  035%=      5-min Rain = 0
KASU 152345Z 06010G18KT 28/11 A2986 RMK A01 T02830112  RH  035%=      5-min Rain = 0
KASU 152350Z 18021G32KT 25/16 A2988 RMK A01 T02480157  RH  059%=      5-min Rain = 0
KASU 152355Z 20020G38KT 23/16 A2989 RMK A01 T02320164  RH  067%=      5-min Rain = 0.01
KASU 160000Z 21020G30KT 21/16 A2989 RMK A01 T02110164  RH  076%=      5-min Rain = 0
KASU 160005Z 19020G28KT 21/17 A2989 RMK A01 T02100167  RH  079%=      5-min Rain = 0
KASU 160010Z 19018G24KT 21/17 A299 RMK A01 T02050169  RH  081%=      5-min Rain = 0.01
KASU 160015Z 18013G21KT 20/17 A2989 RMK A01 T02020166  RH  081%=      5-min Rain = 0
KASU 160020Z 19016G25KT 21/16 A2989 RMK A01 T02080160  RH  076%=      5-min Rain = 0
KASU 160025Z 18014G19KT 21/16 A2988 RMK A01 T02090159  RH  074%=      5-min Rain = 0
KASU 160030Z 17014G19KT 22/15 A2988 RMK A01 T02150153  RH  069%=      5-min Rain = 0
KASU 160035Z 18013G19KT 22/15 A2988 RMK A01 T02200151  RH  067%=      5-min Rain = 0
KASU 160040Z 19010KT 22/15 A2988 RMK A01 T02200151  RH  066%=      5-min Rain = 0
KASU 160045Z 16008G13KT 22/15 A2988 RMK A01 T02190152  RH  067%=      5-min Rain = 0
KASU 160050Z 14008KT 22/15 A2988 RMK A01 T02160152  RH  069%=      5-min Rain = 0
KASU 160055Z 14004KT 22/16 A2989 RMK A01 T02160155  RH  070%=      5-min Rain = 0
KASU 160100Z 11006KT 22/15 A299 RMK A01 T02180154  RH  068%=      5-min Rain = 0
KASU 160105Z 10009KT 22/15 A2991 RMK A01 T02190154  RH  068%=      5-min Rain = 0
KASU 160110Z 13011G16KT 22/15 A299 RMK A01 T02170148  RH  067%=      5-min Rain = 0
KASU 160115Z 13008KT 21/15 A299 RMK A01 T02130149  RH  068%=      5-min Rain = 0
KASU 160120Z 11006KT 21/15 A299 RMK A01 T02130152  RH  070%=      5-min Rain = 0
KASU 160125Z 09007KT 21/15 A299 RMK A01 T02140152  RH  069%=      5-min Rain = 0
KASU 160130Z 07009KT 22/15 A299 RMK A01 T02150154  RH  070%=      5-min Rain = 0
KASU 160135Z 07007KT 21/15 A299 RMK A01 T02140154  RH  070%=      5-min Rain = 0
KASU 160140Z 09007KT 22/15 A299 RMK A01 T02150153  RH  069%=      5-min Rain = 0
KASU 160145Z 10008KT 22/15 A299 RMK A01 T02180147  RH  065%=      5-min Rain = 0
KASU 160150Z 11008KT 22/15 A299 RMK A01 T02210145  RH  063%=      5-min Rain = 0
KASU 160155Z 12008KT 22/15 A299 RMK A01 T02200145  RH  064%=      5-min Rain = 0
KASU 160200Z 12006KT 22/15 A299 RMK A01 T02200145  RH  064%=      5-min Rain = 0
KASU 160205Z 09005KT 22/15 A299 RMK A01 T02190145  RH  064%=      5-min Rain = 0
KASU 160210Z 08008KT 22/15 A299 RMK A01 T02170147  RH  066%=      5-min Rain = 0
KASU 160215Z 09008KT 22/15 A299 RMK A01 T02160145  RH  065%=      5-min Rain = 0
KASU 160220Z 12005KT 21/14 A299 RMK A01 T02140143  RH  065%=      5-min Rain = 0
KASU 160225Z 08007KT 21/15 A2991 RMK A01 T02130146  RH  067%=      5-min Rain = 0
KASU 160230Z 09007KT 21/14 A2992 RMK A01 T02120144  RH  067%=      5-min Rain = 0
KASU 160235Z 09009KT 21/14 A2992 RMK A01 T02110143  RH  067%=      5-min Rain = 0
KASU 160240Z 10008KT 21/14 A2992 RMK A01 T02110140  RH  065%=      5-min Rain = 0
KASU 160245Z 10008KT 21/14 A2992 RMK A01 T02100141  RH  066%=      5-min Rain = 0
KASU 160250Z 10008KT 21/14 A2992 RMK A01 T02080141  RH  067%=      5-min Rain = 0
KASU 160255Z 10006KT 21/14 A2993 RMK A01 T02080141  RH  067%=      5-min Rain = 0
KASU 160300Z 10006KT 21/14 A2993 RMK A01 T02070141  RH  067%=      5-min Rain = 0
KASU 160305Z 08007KT 21/15 A2994 RMK A01 T02070145  RH  069%=      5-min Rain = 0
KASU 160310Z 07007KT 21/15 A2994 RMK A01 T02080146  RH  069%=      5-min Rain = 0
KASU 160315Z 07007KT 21/15 A2996 RMK A01 T02090146  RH  069%=      5-min Rain = 0
KASU 160320Z 08007KT 21/14 A2997 RMK A01 T02090144  RH  068%=      5-min Rain = 0
KASU 160325Z 09007KT 21/14 A2997 RMK A01 T02100141  RH  066%=      5-min Rain = 0
KASU 160330Z 08008KT 21/14 A2997 RMK A01 T02090141  RH  066%=      5-min Rain = 0
KASU 160335Z 07008KT 21/14 A2997 RMK A01 T02090139  RH  066%=      5-min Rain = 0
KASU 160340Z 07007KT 21/14 A2997 RMK A01 T02090138  RH  065%=      5-min Rain = 0
KASU 160345Z 08007KT 21/14 A2998 RMK A01 T02080138  RH  065%=      5-min Rain = 0
KASU 160350Z 08007KT 21/14 A2998 RMK A01 T02070139  RH  066%=      5-min Rain = 0
KASU 160355Z 08008KT 21/14 A2999 RMK A01 T02070138  RH  066%=      5-min Rain = 0
KASU 160400Z 08007KT 21/14 A2999 RMK A01 T02060139  RH  067%=      5-min Rain = 0
KASU 160405Z 11005KT 21/14 A2999 RMK A01 T02060137  RH  066%=      5-min Rain = 0
KASU 160410Z 10006KT 21/14 A2999 RMK A01 T02070136  RH  065%=      5-min Rain = 0
KASU 160415Z 08008KT 21/14 A2999 RMK A01 T02070139  RH  067%=      5-min Rain = 0
KASU 160420Z 06007KT 21/14 A30 RMK A01 T02060139  RH  067%=      5-min Rain = 0
KASU 160425Z 07003KT 21/14 A30 RMK A01 T02060136  RH  066%=      5-min Rain = 0
KASU 160430Z 08005KT 21/14 A3001 RMK A01 T02060138  RH  066%=      5-min Rain = 0
KASU 160435Z 08009KT 21/14 A30 RMK A01 T02050139  RH  067%=      5-min Rain = 0
KASU 160440Z 09010KT 20/14 A30 RMK A01 T02040138  RH  067%=      5-min Rain = 0
KASU 160445Z 09008KT 20/14 A2999 RMK A01 T02040138  RH  067%=      5-min Rain = 0
KASU 160450Z 09008KT 20/14 A30 RMK A01 T02040140  RH  068%=      5-min Rain = 0
KASU 160455Z 08009KT 20/14 A30 RMK A01 T02030142  RH  069%=      5-min Rain = 0

Page generated in 0.009 seconds.